Time;durP1;ratioP1;P1;durP2;ratioP2;P2;SDS_P1;SDS_P2;PMS_P1;PMS_P2;Temp;Humidity;BMP_temperature;BMP_pressure;BME280_temperature;BME280_humidity;BME280_pressure;Samples;Min_cycle;Max_cycle;Signal;HPM_P1;HPM_P2
2021/12/08 00:00:10;;;;;;;7.40;3.08;;;4.40;99.90;;;;;;4797178;29;20046;-79
2021/12/08 00:02:37;;;;;;;10.10;3.60;;;4.40;99.90;;;;;;4788956;29;20039;-80
2021/12/08 00:05:05;;;;;;;9.85;3.33;;;4.40;99.90;;;;;;4785188;29;20065;-80
2021/12/08 00:07:33;;;;;;;9.77;2.70;;;4.40;99.90;;;;;;4778699;29;20043;-80
2021/12/08 00:13:03;;;;;;;8.07;3.20;;;4.40;99.90;;;;;;4753703;29;20514;-81
2021/12/08 00:15:32;;;;;;;10.05;4.22;;;4.30;99.90;;;;;;4783049;29;20054;-78
2021/12/08 00:18:00;;;;;;;12.68;3.83;;;4.40;99.90;;;;;;4804392;29;20045;-79
2021/12/08 00:20:30;;;;;;;11.38;4.00;;;4.30;99.90;;;;;;4777058;29;20062;-78
2021/12/08 00:22:56;;;;;;;8.50;3.10;;;4.30;99.90;;;;;;4765680;29;20498;-79
2021/12/08 00:25:23;;;;;;;10.93;3.50;;;4.40;99.90;;;;;;4772035;29;20054;-78
2021/12/08 00:27:49;;;;;;;11.05;4.57;;;4.40;99.90;;;;;;4765885;29;20042;-79
2021/12/08 00:30:16;;;;;;;9.52;3.92;;;4.30;99.90;;;;;;4748974;29;20034;-78
2021/12/08 00:32:44;;;;;;;13.27;5.13;;;4.40;99.90;;;;;;4779917;29;20054;-78
2021/12/08 00:35:11;;;;;;;13.23;4.78;;;4.40;99.90;;;;;;4784900;29;20038;-78
2021/12/08 00:37:39;;;;;;;10.77;3.65;;;4.40;99.90;;;;;;4767630;29;20491;-78
2021/12/08 00:40:09;;;;;;;8.50;3.85;;;4.40;99.90;;;;;;4777716;29;20053;-79
2021/12/08 00:42:36;;;;;;;11.43;4.15;;;4.40;99.90;;;;;;4806690;29;20039;-79
2021/12/08 00:45:05;;;;;;;11.95;4.65;;;4.40;99.90;;;;;;4792038;29;20050;-79
2021/12/08 00:47:32;;;;;;;14.10;5.03;;;4.40;99.90;;;;;;4793318;29;20058;-78
2021/12/08 00:49:58;;;;;;;12.77;5.72;;;4.40;99.90;;;;;;4783066;29;20042;-79
2021/12/08 00:52:28;;;;;;;11.90;4.47;;;4.40;99.90;;;;;;4769696;29;20043;-79
2021/12/08 00:54:56;;;;;;;9.82;4.18;;;4.40;99.90;;;;;;4768209;29;20514;-80
2021/12/08 00:57:23;;;;;;;10.60;3.70;;;4.40;99.90;;;;;;4770362;29;20510;-81
2021/12/08 00:59:49;;;;;;;5.95;3.97;;;4.40;99.90;;;;;;4764853;29;20047;-81
2021/12/08 01:02:16;;;;;;;10.05;5.45;;;4.40;99.90;;;;;;4747755;29;20054;-80
2021/12/08 01:04:43;;;;;;;9.80;5.03;;;4.40;99.90;;;;;;4779125;29;20054;-81
2021/12/08 01:07:10;;;;;;;12.75;5.45;;;4.40;99.90;;;;;;4780881;29;20053;-80
2021/12/08 01:09:37;;;;;;;13.50;5.15;;;4.40;99.90;;;;;;4780928;29;20042;-80
2021/12/08 01:12:04;;;;;;;12.15;4.72;;;4.50;99.90;;;;;;4785064;29;20416;-80
2021/12/08 01:14:34;;;;;;;10.55;4.80;;;4.50;99.90;;;;;;4768160;29;20039;-80
2021/12/08 01:17:02;;;;;;;14.20;6.35;;;4.50;99.90;;;;;;4782992;29;20066;-80
2021/12/08 01:19:29;;;;;;;18.50;5.80;;;4.50;99.90;;;;;;4790289;29;20058;-79
2021/12/08 01:21:56;;;;;;;9.97;5.70;;;4.50;99.90;;;;;;4808492;29;20042;-79
2021/12/08 01:24:22;;;;;;;12.02;6.45;;;4.50;99.90;;;;;;4782834;29;20046;-79
2021/12/08 01:26:49;;;;;;;15.23;7.32;;;4.60;99.90;;;;;;4805904;29;20053;-79
2021/12/08 01:29:16;;;;;;;11.32;5.88;;;4.60;99.90;;;;;;4775653;29;20500;-79
2021/12/08 01:31:43;;;;;;;12.27;7.20;;;4.60;99.90;;;;;;4780388;29;20050;-78
2021/12/08 01:34:12;;;;;;;12.80;7.50;;;4.60;99.90;;;;;;4819707;29;20562;-80
2021/12/08 01:36:39;;;;;;;10.70;5.88;;;4.60;99.90;;;;;;4816782;29;20064;-79
2021/12/08 01:39:07;;;;;;;11.18;6.18;;;4.60;99.90;;;;;;4765884;29;20038;-80
2021/12/08 01:41:35;;;;;;;17.35;8.68;;;4.60;99.90;;;;;;4770782;29;20047;-80
2021/12/08 01:46:48;;;;;;;12.25;4.85;;;4.70;99.90;;;;;;4794954;29;20053;-80
2021/12/08 01:49:15;;;;;;;7.55;4.57;;;4.70;99.90;;;;;;4782772;29;20050;-79
2021/12/08 01:51:43;;;;;;;10.75;6.07;;;4.70;99.90;;;;;;4776057;29;20484;-80
2021/12/08 01:54:09;;;;;;;14.65;6.28;;;4.80;99.90;;;;;;4789282;29;20039;-80
2021/12/08 01:56:36;;;;;;;7.38;4.25;;;4.80;99.90;;;;;;4784644;29;20038;-80
2021/12/08 01:59:06;;;;;;;15.68;6.00;;;4.80;99.90;;;;;;4796650;29;20525;-80
2021/12/08 02:01:35;;;;;;;8.05;4.13;;;4.80;99.90;;;;;;4777873;29;20039;-80
2021/12/08 02:04:04;;;;;;;6.80;4.30;;;4.90;99.90;;;;;;4796052;29;20050;-80
2021/12/08 02:06:34;;;;;;;9.27;3.95;;;4.90;99.90;;;;;;4777667;29;20415;-79
2021/12/08 02:09:03;;;;;;;9.82;4.38;;;4.90;99.90;;;;;;4755080;29;20032;-80
2021/12/08 02:11:29;;;;;;;4.47;2.90;;;5.00;99.90;;;;;;4809285;29;20050;-78
2021/12/08 02:14:00;;;;;;;3.97;2.55;;;5.00;99.90;;;;;;4777634;29;20476;-79
2021/12/08 02:16:28;;;;;;;8.30;3.25;;;5.00;99.90;;;;;;4801636;29;20046;-78
2021/12/08 02:18:56;;;;;;;11.00;3.25;;;5.00;99.90;;;;;;4773538;29;20133;-80
2021/12/08 02:21:22;;;;;;;6.82;3.70;;;5.10;99.90;;;;;;4805233;29;20045;-78
2021/12/08 02:23:49;;;;;;;4.78;2.78;;;5.10;99.90;;;;;;4793715;29;20065;-78
2021/12/08 02:26:16;;;;;;;10.25;5.28;;;5.10;99.90;;;;;;4794266;29;20047;-78
2021/12/08 02:28:44;;;;;;;6.90;3.50;;;5.20;99.90;;;;;;4791007;29;20042;-79
2021/12/08 02:31:14;;;;;;;7.35;3.40;;;5.20;99.90;;;;;;4748569;29;20488;-78
2021/12/08 02:47:42;;;;;;;9.35;3.28;;;5.40;99.90;;;;;;4762792;29;20062;-79
2021/12/08 02:50:11;;;;;;;6.80;2.60;;;5.40;99.90;;;;;;4772121;29;20054;-79
2021/12/08 02:52:38;;;;;;;4.93;2.78;;;5.40;99.90;;;;;;4791043;29;20035;-79
2021/12/08 02:55:07;;;;;;;6.45;2.42;;;5.40;99.90;;;;;;4779291;29;20043;-78
2021/12/08 02:57:34;;;;;;;6.18;2.78;;;5.50;99.90;;;;;;4765185;29;20059;-78
2021/12/08 03:00:02;;;;;;;8.05;2.70;;;5.50;99.90;;;;;;4797855;29;20061;-78
2021/12/08 03:02:28;;;;;;;4.28;2.38;;;5.50;99.90;;;;;;4776140;29;20046;-78
2021/12/08 03:04:55;;;;;;;3.53;1.77;;;5.40;99.90;;;;;;4776749;29;20053;-78
2021/12/08 03:07:22;;;;;;;5.28;2.10;;;5.50;99.90;;;;;;4775653;29;20055;-78
2021/12/08 03:09:48;;;;;;;3.97;1.65;;;5.60;99.90;;;;;;4791148;29;20046;-78
2021/12/08 03:12:15;;;;;;;4.15;1.83;;;5.60;99.90;;;;;;4809859;29;20053;-78
2021/12/08 03:14:41;;;;;;;4.55;2.28;;;5.60;99.90;;;;;;4812442;29;20049;-78
2021/12/08 03:17:09;;;;;;;3.72;1.60;;;5.60;99.90;;;;;;4783729;29;20466;-78
2021/12/08 03:19:36;;;;;;;3.70;1.85;;;5.60;99.90;;;;;;4770289;29;20125;-78
2021/12/08 03:22:09;;;;;;;6.10;1.95;;;5.60;99.90;;;;;;4769740;29;20047;-78
2021/12/08 03:24:37;;;;;;;8.75;2.78;;;5.50;99.90;;;;;;4770207;29;20050;-78
2021/12/08 03:27:11;;;;;;;4.55;1.90;;;5.40;99.90;;;;;;4766867;29;20054;-78
2021/12/08 03:29:47;;;;;;;4.28;1.83;;;5.40;99.90;;;;;;4768368;29;20053;-78
2021/12/08 03:32:18;;;;;;;4.00;1.90;;;5.30;99.90;;;;;;4775893;29;20043;-78
2021/12/08 03:34:52;;;;;;;5.80;1.80;;;5.30;99.90;;;;;;4772922;29;20057;-78
2021/12/08 03:37:27;;;;;;;3.63;1.45;;;5.20;99.90;;;;;;4794674;29;20058;-79
2021/12/08 03:39:55;;;;;;;5.15;2.28;;;5.20;99.90;;;;;;4780584;29;20046;-78
2021/12/08 03:42:25;;;;;;;6.95;2.50;;;5.20;99.90;;;;;;4773756;29;20047;-78
2021/12/08 03:44:55;;;;;;;6.00;2.10;;;5.30;99.90;;;;;;4808760;29;20042;-79
2021/12/08 03:47:28;;;;;;;9.38;3.03;;;5.40;99.90;;;;;;4763787;29;20046;-79
2021/12/08 03:49:58;;;;;;;5.97;2.08;;;5.40;99.90;;;;;;4765659;29;20170;-80
2021/12/08 03:52:25;;;;;;;7.13;1.98;;;5.50;99.90;;;;;;4796133;29;20038;-79
2021/12/08 03:54:51;;;;;;;6.35;1.73;;;5.50;99.90;;;;;;4781626;29;20048;-79
2021/12/08 03:57:18;;;;;;;6.88;1.88;;;5.60;99.90;;;;;;4789943;29;20046;-78
2021/12/08 03:59:45;;;;;;;7.35;2.38;;;5.60;99.90;;;;;;4768148;29;20062;-77
2021/12/08 04:02:11;;;;;;;4.10;1.40;;;5.70;99.90;;;;;;4755593;29;20038;-78
2021/12/08 04:04:45;;;;;;;6.97;2.05;;;5.70;99.90;;;;;;4799115;29;20042;-77
2021/12/08 04:07:14;;;;;;;4.47;1.30;;;5.80;99.90;;;;;;4801376;29;20360;-79
2021/12/08 04:09:43;;;;;;;5.60;1.17;;;5.80;99.90;;;;;;4783261;29;20637;-79
2021/12/08 04:12:13;;;;;;;4.70;1.23;;;5.80;99.90;;;;;;4801409;29;20054;-79
2021/12/08 04:14:46;;;;;;;6.35;1.58;;;5.80;99.90;;;;;;4767688;29;20097;-78
2021/12/08 04:17:23;;;;;;;3.90;1.40;;;5.80;99.90;;;;;;4779885;29;20395;-79
2021/12/08 04:19:51;;;;;;;4.28;1.10;;;5.90;99.90;;;;;;4761484;29;20054;-79
2021/12/08 04:22:27;;;;;;;9.02;1.63;;;5.90;99.90;;;;;;4795113;29;20043;-79
2021/12/08 04:24:55;;;;;;;8.32;1.55;;;5.90;99.90;;;;;;4779458;29;20039;-78
2021/12/08 04:27:31;;;;;;;5.18;1.30;;;6.00;99.90;;;;;;4798253;29;20045;-79
2021/12/08 04:29:58;;;;;;;6.85;1.30;;;6.00;99.90;;;;;;4812380;29;20398;-79
2021/12/08 04:32:29;;;;;;;7.97;1.58;;;6.00;99.90;;;;;;4784108;29;20480;-79
2021/12/08 04:34:59;;;;;;;8.15;1.55;;;6.00;99.90;;;;;;4766757;29;20034;-79
2021/12/08 04:37:31;;;;;;;6.13;1.40;;;6.10;99.90;;;;;;4811715;29;20050;-78
2021/12/08 04:43:09;;;;;;;6.95;1.38;;;6.10;99.90;;;;;;4807630;29;20045;-78
2021/12/08 04:45:53;;;;;;;5.93;1.65;;;6.10;99.90;;;;;;4779486;29;20043;-78
2021/12/08 04:51:37;;;;;;;5.38;1.35;;;6.10;99.90;;;;;;4793648;29;20058;-79
2021/12/08 05:08:21;;;;;;;3.78;0.80;;;5.70;99.90;;;;;;4798556;29;20039;-79
2021/12/08 05:10:50;;;;;;;7.32;0.95;;;5.50;99.90;;;;;;4817167;29;20038;-79
2021/12/08 05:13:18;;;;;;;5.88;1.00;;;5.40;99.90;;;;;;4780325;29;20034;-79
2021/12/08 05:15:52;;;;;;;6.55;1.25;;;5.40;99.90;;;;;;4765048;29;20053;-79
2021/12/08 05:18:23;;;;;;;5.78;1.05;;;5.30;99.90;;;;;;4811337;29;20042;-78
2021/12/08 05:21:21;;;;;;;4.28;1.00;;;5.20;99.90;;;;;;4784373;29;20038;-78
2021/12/08 05:23:54;;;;;;;4.88;0.95;;;5.20;99.90;;;;;;4773264;29;20046;-79
2021/12/08 05:26:28;;;;;;;3.63;0.70;;;5.10;99.90;;;;;;4774377;29;20051;-79
2021/12/08 05:28:59;;;;;;;6.00;1.17;;;5.10;99.90;;;;;;4762497;29;20042;-79
2021/12/08 05:31:29;;;;;;;3.25;0.88;;;5.10;99.90;;;;;;4792809;29;20041;-79
2021/12/08 05:33:55;;;;;;;7.95;1.10;;;5.20;99.90;;;;;;4763181;29;20039;-79
2021/12/08 05:36:23;;;;;;;6.32;0.90;;;5.20;99.90;;;;;;4784274;29;20049;-79
2021/12/08 05:38:51;;;;;;;4.63;0.80;;;5.30;99.90;;;;;;4779479;29;20039;-78
2021/12/08 05:41:26;;;;;;;7.43;1.25;;;5.40;99.90;;;;;;4761429;29;20058;-79
2021/12/08 05:43:53;;;;;;;9.05;1.20;;;5.40;99.90;;;;;;4797844;29;20041;-79
2021/12/08 05:46:22;;;;;;;8.27;1.23;;;5.40;99.90;;;;;;4788032;29;20047;-79
2021/12/08 05:48:50;;;;;;;9.45;1.35;;;5.50;99.90;;;;;;4777588;29;20035;-79
2021/12/08 05:51:26;;;;;;;5.90;1.52;;;5.40;99.90;;;;;;4779037;29;20061;-79
2021/12/08 05:53:58;;;;;;;5.13;1.27;;;5.50;99.90;;;;;;4811688;29;20049;-79
2021/12/08 05:56:26;;;;;;;4.97;0.88;;;5.40;99.90;;;;;;4782044;29;20042;-79
2021/12/08 05:58:56;;;;;;;7.47;1.08;;;5.40;99.90;;;;;;4767288;29;20073;-79
2021/12/08 06:01:33;;;;;;;6.15;1.05;;;5.30;99.90;;;;;;4779853;29;20376;-79
2021/12/08 06:04:00;;;;;;;12.52;1.50;;;5.30;99.90;;;;;;4769292;29;20079;-80
2021/12/08 06:06:28;;;;;;;11.05;1.52;;;5.20;99.90;;;;;;4817683;29;20049;-80
2021/12/08 06:08:56;;;;;;;5.45;1.10;;;5.10;99.90;;;;;;4810948;29;20039;-79
2021/12/08 06:11:25;;;;;;;6.82;0.80;;;5.10;99.90;;;;;;4809607;29;20046;-79
2021/12/08 06:13:59;;;;;;;5.05;0.80;;;5.00;99.90;;;;;;4753744;29;20039;-79
2021/12/08 06:16:27;;;;;;;5.82;0.80;;;4.90;99.90;;;;;;4809289;29;20034;-79
2021/12/08 06:18:54;;;;;;;4.97;0.80;;;4.90;99.90;;;;;;4785347;29;20053;-80
2021/12/08 06:21:25;;;;;;;7.32;1.95;;;4.90;99.90;;;;;;4774930;29;20054;-80
2021/12/08 06:23:53;;;;;;;8.15;1.15;;;4.90;99.90;;;;;;4766453;29;20042;-79
2021/12/08 06:26:24;;;;;;;4.75;0.90;;;4.80;99.90;;;;;;4813632;29;20058;-79
2021/12/08 06:28:52;;;;;;;9.95;1.40;;;4.80;99.90;;;;;;4791070;29;20042;-79
2021/12/08 06:31:20;;;;;;;9.32;1.00;;;4.80;99.90;;;;;;4775697;29;20049;-78
2021/12/08 06:33:47;;;;;;;8.10;0.98;;;4.80;99.90;;;;;;4759826;29;20502;-78
2021/12/08 06:36:22;;;;;;;5.10;0.80;;;4.70;99.90;;;;;;4750689;29;20051;-78
2021/12/08 06:38:49;;;;;;;5.93;0.70;;;4.70;99.90;;;;;;4793376;29;20094;-79
2021/12/08 06:41:38;;;;;;;4.95;0.77;;;4.80;99.90;;;;;;4800339;29;20054;-80
2021/12/08 06:44:12;;;;;;;6.43;1.25;;;4.80;99.90;;;;;;4777594;29;20053;-79
2021/12/08 06:46:41;;;;;;;10.88;1.10;;;4.80;99.90;;;;;;4797908;29;20038;-81
2021/12/08 06:49:10;;;;;;;9.85;1.15;;;4.80;99.90;;;;;;4781513;29;20047;-82
2021/12/08 06:51:44;;;;;;;5.75;0.85;;;4.90;99.90;;;;;;4784706;29;20038;-80
2021/12/08 06:54:22;;;;;;;14.23;3.58;;;4.90;99.90;;;;;;4777595;29;20038;-80
2021/12/08 06:57:18;;;;;;;12.90;4.00;;;4.90;99.90;;;;;;4777157;29;20038;-79
2021/12/08 06:59:57;;;;;;;15.05;3.92;;;5.00;99.90;;;;;;4767835;29;20042;-80
2021/12/08 07:07:57;;;;;;;7.35;1.02;;;5.00;99.90;;;;;;4804973;29;20054;-79
2021/12/08 07:10:28;;;;;;;14.68;1.55;;;4.90;99.90;;;;;;4789937;29;20050;-79
2021/12/08 07:13:03;;;;;;;8.90;1.67;;;4.80;99.90;;;;;;4803243;29;20411;-79
2021/12/08 07:15:38;;;;;;;7.88;2.80;;;4.80;99.90;;;;;;4793055;29;20053;-78
2021/12/08 07:18:13;;;;;;;8.55;1.92;;;4.80;99.90;;;;;;4776101;29;20409;-79
2021/12/08 07:20:49;;;;;;;18.02;1.73;;;4.70;99.90;;;;;;4793578;29;20053;-81
2021/12/08 07:23:25;;;;;;;10.70;1.58;;;4.70;99.90;;;;;;4789685;29;20043;-81
2021/12/08 07:25:55;;;;;;;8.35;1.20;;;4.60;99.90;;;;;;4789148;29;20486;-78
2021/12/08 07:28:25;;;;;;;10.05;1.35;;;4.60;99.90;;;;;;4804023;29;20050;-79
2021/12/08 07:30:59;;;;;;;14.02;1.77;;;4.60;99.90;;;;;;4795618;29;20533;-78
2021/12/08 07:33:27;;;;;;;7.30;2.13;;;4.60;99.90;;;;;;4781107;29;20065;-78
2021/12/08 07:35:57;;;;;;;13.93;1.38;;;4.50;99.90;;;;;;4803607;29;20050;-82
2021/12/08 07:38:28;;;;;;;10.65;1.55;;;4.50;99.90;;;;;;4753536;29;20050;-78
2021/12/08 07:41:05;;;;;;;14.75;1.77;;;4.50;99.90;;;;;;4800252;29;20035;-77
2021/12/08 07:43:34;;;;;;;10.77;1.70;;;4.50;99.90;;;;;;4770651;29;20035;-78
2021/12/08 07:46:06;;;;;;;12.68;1.63;;;4.50;99.90;;;;;;4758328;29;20045;-78
2021/12/08 07:48:38;;;;;;;11.07;1.15;;;4.50;99.90;;;;;;4793364;29;20067;-78
2021/12/08 07:51:13;;;;;;;9.30;1.50;;;4.50;99.90;;;;;;4799959;29;20053;-79
2021/12/08 07:53:41;;;;;;;7.50;1.42;;;4.50;99.90;;;;;;4793561;29;20031;-78
2021/12/08 07:56:11;;;;;;;7.40;0.80;;;4.50;99.90;;;;;;4755823;29;20042;-78
2021/12/08 07:58:41;;;;;;;7.07;0.85;;;4.40;99.90;;;;;;4776268;29;20063;-78
2021/12/08 08:01:15;;;;;;;11.05;2.15;;;4.40;99.90;;;;;;4789157;29;20399;-78
2021/12/08 08:03:42;;;;;;;13.35;1.83;;;4.50;99.90;;;;;;4799064;29;20042;-78
2021/12/08 08:06:14;;;;;;;8.75;1.45;;;4.50;99.90;;;;;;4775588;29;20032;-77
2021/12/08 08:08:42;;;;;;;10.45;1.80;;;4.50;99.90;;;;;;4799938;29;20604;-78
2021/12/08 08:11:13;;;;;;;7.25;1.17;;;4.50;99.90;;;;;;4765424;29;20039;-78
2021/12/08 08:13:40;;;;;;;13.57;1.75;;;4.50;99.90;;;;;;4785576;29;20042;-78
2021/12/08 08:16:11;;;;;;;8.20;1.67;;;4.60;99.90;;;;;;4776233;29;20047;-78
2021/12/08 08:18:44;;;;;;;9.63;1.25;;;4.60;99.90;;;;;;4807711;29;20038;-78
2021/12/08 08:21:14;;;;;;;;;;;4.60;99.90;;;;;;4782603;29;20487;-77
2021/12/08 08:23:41;;;;;;;9.43;1.63;;;4.70;99.90;;;;;;4775715;29;20277;-78
2021/12/08 08:26:10;;;;;;;7.50;1.40;;;4.80;99.90;;;;;;4773615;29;20041;-77
2021/12/08 08:28:38;;;;;;;9.82;2.05;;;4.80;99.90;;;;;;4763328;29;20049;-77
2021/12/08 08:31:11;;;;;;;10.00;1.70;;;4.90;99.90;;;;;;4792023;29;20030;-78
2021/12/08 08:33:40;;;;;;;14.55;2.28;;;5.00;99.90;;;;;;4782419;29;20045;-78
2021/12/08 08:36:10;;;;;;;14.57;2.45;;;5.00;99.90;;;;;;4807872;29;20041;-78
2021/12/08 08:38:56;;;;;;;13.00;2.10;;;5.00;99.90;;;;;;4816270;29;20057;-78
2021/12/08 08:41:33;;;;;;;15.07;1.85;;;5.10;99.90;;;;;;4792520;29;20042;-78
2021/12/08 08:44:04;;;;;;;16.38;2.80;;;5.10;99.90;;;;;;4777641;29;20052;-78
2021/12/08 08:46:38;;;;;;;10.38;1.58;;;5.10;99.90;;;;;;4777247;29;20043;-77
2021/12/08 08:49:11;;;;;;;9.70;1.25;;;5.20;99.90;;;;;;4789793;29;20042;-79
2021/12/08 08:51:47;;;;;;;;;;;5.20;99.90;;;;;;4776080;29;20121;-80
2021/12/08 08:54:23;;;;;;;10.57;1.77;;;5.20;99.90;;;;;;4799068;29;19920;-80
2021/12/08 08:57:27;;;;;;;13.02;4.22;;;5.20;99.90;;;;;;4763408;29;20042;-80
2021/12/08 08:59:59;;;;;;;17.70;2.40;;;5.20;99.90;;;;;;4772028;29;20046;-80
2021/12/08 09:02:30;;;;;;;8.98;1.90;;;5.30;99.90;;;;;;4784044;29;20042;-79
2021/12/08 09:05:01;;;;;;;13.23;1.05;;;5.30;99.90;;;;;;4791462;29;20042;-82
2021/12/08 09:07:34;;;;;;;14.90;2.25;;;5.30;99.90;;;;;;4794880;29;20050;-81
2021/12/08 09:10:04;;;;;;;;;;;5.30;99.90;;;;;;4794655;29;20040;-80
2021/12/08 09:12:33;;;;;;;10.68;1.52;;;5.30;99.90;;;;;;4790049;29;20301;-80
2021/12/08 09:15:37;;;;;;;6.10;1.10;;;5.20;99.90;;;;;;4781493;29;20027;-81
2021/12/08 09:18:15;;;;;;;9.93;1.25;;;5.10;99.90;;;;;;4732632;30;20040;-82
2021/12/08 09:21:18;;;;;;;11.40;1.40;;;5.10;99.90;;;;;;4765925;29;20047;-83
2021/12/08 09:23:59;;;;;;;6.15;1.02;;;5.10;99.90;;;;;;4789783;29;20039;-81
2021/12/08 09:26:27;;;;;;;8.30;1.30;;;5.10;99.90;;;;;;4775936;29;20046;-83
2021/12/08 09:29:18;;;;;;;11.13;1.35;;;5.10;99.90;;;;;;4795016;29;20038;-81
2021/12/08 09:31:54;;;;;;;10.10;1.45;;;5.20;99.90;;;;;;4761565;29;20743;-82
2021/12/08 09:34:29;;;;;;;9.95;2.20;;;5.20;99.90;;;;;;4782454;29;20049;-82
2021/12/08 09:36:59;;;;;;;11.15;3.60;;;5.20;99.90;;;;;;4759465;29;20045;-84
2021/12/08 09:39:40;;;;;;;10.88;1.60;;;5.30;99.90;;;;;;4778033;29;20037;-82
2021/12/08 09:42:11;;;;;;;5.03;1.10;;;5.40;99.90;;;;;;4771065;29;20049;-82
2021/12/08 09:44:53;;;;;;;8.98;1.48;;;5.40;99.90;;;;;;4785555;29;20066;-81
2021/12/08 09:47:20;;;;;;;6.75;1.15;;;5.50;99.90;;;;;;4801202;29;20053;-82
2021/12/08 09:49:49;;;;;;;10.60;2.03;;;5.60;99.90;;;;;;4782634;29;20047;-82
2021/12/08 09:52:19;;;;;;;6.82;1.55;;;5.70;99.90;;;;;;4796280;29;20034;-82
2021/12/08 09:54:46;;;;;;;8.70;1.88;;;5.90;99.90;;;;;;4799123;29;20042;-79
2021/12/08 09:57:14;;;;;;;5.18;1.52;;;6.10;99.90;;;;;;4792685;29;20054;-80
2021/12/08 09:59:47;;;;;;;5.75;0.95;;;6.30;99.90;;;;;;4787585;29;20054;-80
2021/12/08 10:02:24;;;;;;;6.32;1.20;;;6.60;99.90;;;;;;4816513;29;20038;-80
2021/12/08 10:04:54;;;;;;;7.50;0.98;;;6.80;99.90;;;;;;4779755;29;20034;-80
2021/12/08 10:07:23;;;;;;;10.80;1.05;;;7.00;99.90;;;;;;4766480;29;20047;-80
2021/12/08 10:09:49;;;;;;;5.47;1.00;;;7.10;99.90;;;;;;4772056;29;20039;-80
2021/12/08 10:12:16;;;;;;;5.97;1.17;;;7.30;99.90;;;;;;4767808;29;20047;-80
2021/12/08 10:14:46;;;;;;;6.45;0.80;;;7.40;99.90;;;;;;4760637;29;20039;-81
2021/12/08 10:17:21;;;;;;;5.00;0.75;;;7.50;99.90;;;;;;4770202;29;20062;-81
2021/12/08 10:20:07;;;;;;;5.78;0.73;;;7.70;99.90;;;;;;4775058;29;20406;-80
2021/12/08 10:22:34;;;;;;;6.15;0.80;;;7.90;99.90;;;;;;4775442;29;20042;-81
2021/12/08 10:25:07;;;;;;;8.05;1.58;;;8.10;99.90;;;;;;4805129;29;20430;-80
2021/12/08 10:28:12;;;;;;;6.40;0.80;;;8.10;99.90;;;;;;4776441;29;20038;-83
2021/12/08 10:30:46;;;;;;;5.43;1.00;;;8.00;99.90;;;;;;4756280;29;20684;-84
2021/12/08 10:34:04;;;;;;;5.55;1.35;;;7.80;99.90;;;;;;4773888;29;20038;-84
2021/12/08 10:36:53;;;;;;;10.73;1.35;;;7.60;99.90;;;;;;4758720;29;20043;-84
2021/12/08 10:39:46;;;;;;;7.20;0.98;;;7.30;99.90;;;;;;4761541;29;20045;-84
2021/12/08 10:42:19;;;;;;;9.50;1.30;;;7.10;99.90;;;;;;4790006;29;20054;-84
2021/12/08 10:45:08;;;;;;;7.13;1.23;;;6.90;99.90;;;;;;4762721;29;20522;-81
2021/12/08 10:47:49;;;;;;;3.63;0.80;;;6.80;99.90;;;;;;4770433;29;20055;-84
2021/12/08 10:56:15;;;;;;;5.07;1.02;;;6.50;99.90;;;;;;4776581;29;20053;-84
2021/12/08 10:58:49;;;;;;;5.95;1.38;;;6.40;99.90;;;;;;4754666;29;20055;-84
2021/12/08 11:01:19;;;;;;;8.10;1.02;;;6.40;99.90;;;;;;4756777;29;20375;-84
2021/12/08 11:03:47;;;;;;;7.43;1.20;;;6.40;99.90;;;;;;4754647;29;20495;-84
2021/12/08 11:06:16;;;;;;;4.88;1.10;;;6.40;99.90;;;;;;4743516;29;20051;-84
2021/12/08 11:08:45;;;;;;;3.83;0.95;;;6.40;99.90;;;;;;4754776;29;20047;-84
2021/12/08 11:11:20;;;;;;;7.35;1.42;;;6.40;99.90;;;;;;4769889;29;20035;-84
2021/12/08 11:13:52;;;;;;;7.70;1.00;;;6.40;99.90;;;;;;4771415;29;20487;-84
2021/12/08 11:16:30;;;;;;;6.75;0.88;;;6.40;99.90;;;;;;4763931;29;20516;-84
2021/12/08 11:19:01;;;;;;;8.65;0.98;;;6.40;99.90;;;;;;4754035;29;20546;-85
2021/12/08 11:21:35;;;;;;;5.07;1.25;;;6.50;99.90;;;;;;4753756;29;20043;-82
2021/12/08 11:24:31;;;;;;;5.65;1.33;;;6.50;99.90;;;;;;4742754;29;20040;-80
2021/12/08 11:26:58;;;;;;;5.95;1.30;;;6.50;99.90;;;;;;4776733;29;20532;-81
2021/12/08 11:29:31;;;;;;;4.40;0.63;;;6.60;99.90;;;;;;4750831;29;20050;-81
2021/12/08 11:32:07;;;;;;;8.38;0.85;;;6.70;99.90;;;;;;4756253;29;20043;-81
2021/12/08 11:34:43;;;;;;;5.45;1.00;;;6.80;99.90;;;;;;4760321;29;20541;-81
2021/12/08 11:37:14;;;;;;;4.95;1.00;;;7.00;99.90;;;;;;4773872;29;20039;-83
2021/12/08 11:39:48;;;;;;;16.37;2.40;;;7.10;99.90;;;;;;4757147;29;20575;-83
2021/12/08 11:42:17;;;;;;;7.75;1.17;;;7.20;99.90;;;;;;4761020;29;20495;-81
2021/12/08 11:44:46;;;;;;;5.55;0.90;;;7.20;99.90;;;;;;4759294;29;20499;-85
2021/12/08 11:47:15;;;;;;;9.55;2.70;;;7.20;99.90;;;;;;4744913;29;20047;-83
2021/12/08 11:49:50;;;;;;;9.20;2.30;;;7.30;99.90;;;;;;4770555;29;20043;-84
2021/12/08 11:52:23;;;;;;;6.78;1.50;;;7.30;99.90;;;;;;4757771;29;20424;-85
2021/12/08 11:55:01;;;;;;;9.80;1.30;;;7.30;99.90;;;;;;4759716;29;20480;-84
2021/12/08 11:57:32;;;;;;;9.85;1.15;;;7.20;99.90;;;;;;4770272;29;20043;-85
2021/12/08 12:00:27;;;;;;;6.32;0.70;;;7.20;99.90;;;;;;4786041;29;20495;-84
2021/12/08 12:03:03;;;;;;;4.20;0.70;;;7.20;99.90;;;;;;4801120;29;20039;-83
2021/12/08 12:05:34;;;;;;;5.50;0.90;;;7.20;99.90;;;;;;4791236;29;20047;-83
2021/12/08 12:08:03;;;;;;;8.48;1.40;;;7.20;99.90;;;;;;4760863;29;20492;-83
2021/12/08 12:10:33;;;;;;;7.15;0.93;;;7.20;99.90;;;;;;4791121;29;20047;-82
2021/12/08 12:13:03;;;;;;;7.32;1.25;;;7.20;99.90;;;;;;4798080;29;20054;-86
2021/12/08 12:15:30;;;;;;;6.00;0.82;;;7.10;99.90;;;;;;4785999;29;20051;-81
2021/12/08 12:17:57;;;;;;;4.50;0.77;;;7.10;99.90;;;;;;4774263;29;20071;-77
2021/12/08 12:20:38;;;;;;;7.10;0.90;;;7.10;99.90;;;;;;4793702;29;20043;-81
2021/12/08 12:23:10;;;;;;;5.35;0.80;;;7.00;99.90;;;;;;4789928;29;20030;-80
2021/12/08 12:26:09;;;;;;;4.07;0.80;;;7.00;99.90;;;;;;4791727;29;20034;-81
2021/12/08 12:29:00;;;;;;;4.53;1.00;;;6.90;99.90;;;;;;4792015;29;20042;-81
2021/12/08 12:31:59;;;;;;;6.10;0.95;;;6.90;99.90;;;;;;4795013;29;20530;-86
2021/12/08 12:34:39;;;;;;;8.52;2.65;;;6.90;99.90;;;;;;4776921;29;20054;-84
2021/12/08 12:37:18;;;;;;;7.60;3.50;;;6.90;99.90;;;;;;4780592;29;20058;-81
2021/12/08 12:39:49;;;;;;;9.68;4.55;;;6.90;99.90;;;;;;4775979;29;20051;-81
2021/12/08 12:42:19;;;;;;;7.50;2.42;;;6.90;99.90;;;;;;4780106;29;20039;-81
2021/12/08 12:45:08;;;;;;;5.82;1.52;;;6.90;99.90;;;;;;4781405;29;20480;-86
2021/12/08 12:47:35;;;;;;;10.60;1.25;;;6.90;99.90;;;;;;4776363;29;20502;-85
2021/12/08 12:50:22;;;;;;;9.35;1.05;;;7.00;99.90;;;;;;4788104;29;20031;-84
2021/12/08 12:52:53;;;;;;;5.50;1.13;;;6.90;99.90;;;;;;4796476;29;20057;-83
2021/12/08 12:55:31;;;;;;;5.82;0.90;;;6.90;99.90;;;;;;4761062;29;20469;-84
2021/12/08 12:58:03;;;;;;;6.95;1.13;;;6.90;99.90;;;;;;4757562;29;20058;-84
2021/12/08 13:00:34;;;;;;;3.75;0.70;;;7.00;99.90;;;;;;4785937;29;20050;-82
2021/12/08 13:03:02;;;;;;;5.65;1.23;;;7.00;99.90;;;;;;4760234;29;20039;-81
2021/12/08 13:05:52;;;;;;;5.88;1.15;;;7.00;99.90;;;;;;4758298;29;20057;-81
2021/12/08 13:08:38;;;;;;;7.20;1.35;;;7.10;99.90;;;;;;4788218;29;20046;-81
2021/12/08 13:11:34;;;;;;;4.25;1.10;;;7.10;99.90;;;;;;4806559;29;20046;-81
2021/12/08 13:14:03;;;;;;;6.03;1.13;;;7.10;99.90;;;;;;4791064;29;20051;-82
2021/12/08 13:16:36;;;;;;;4.72;1.42;;;7.10;99.90;;;;;;4777297;29;20390;-83
2021/12/08 13:19:06;;;;;;;3.65;1.00;;;7.10;99.90;;;;;;4768729;29;20039;-81
2021/12/08 13:21:49;;;;;;;6.95;1.60;;;7.00;99.90;;;;;;4758852;29;20050;-84
2021/12/08 13:24:35;;;;;;;5.88;1.35;;;7.00;99.90;;;;;;4771523;29;20039;-82
2021/12/08 13:27:09;;;;;;;4.68;1.33;;;7.00;99.90;;;;;;4784507;29;20050;-82
2021/12/08 13:29:42;;;;;;;4.50;1.02;;;6.90;99.90;;;;;;4766692;29;20042;-82
2021/12/08 13:32:11;;;;;;;5.25;1.15;;;6.90;99.90;;;;;;4793514;29;20030;-80
2021/12/08 13:34:53;;;;;;;6.70;1.45;;;6.90;99.90;;;;;;4810786;29;20593;-82
2021/12/08 13:37:23;;;;;;;7.25;1.35;;;7.00;99.90;;;;;;4799532;29;20396;-83
2021/12/08 13:39:52;;;;;;;9.52;3.92;;;7.00;99.90;;;;;;4788394;29;20508;-80
2021/12/08 13:42:29;;;;;;;10.07;5.18;;;7.10;99.90;;;;;;4773850;29;20039;-80
2021/12/08 13:45:16;;;;;;;5.30;1.90;;;7.20;99.90;;;;;;4805082;29;20058;-89
2021/12/08 13:47:48;;;;;;;7.70;1.23;;;7.20;99.90;;;;;;4786943;29;20046;-85
2021/12/08 13:50:21;;;;;;;6.53;1.42;;;7.20;99.90;;;;;;4785347;29;20031;-83
2021/12/08 13:53:08;;;;;;;6.25;1.20;;;7.20;99.90;;;;;;4764444;29;20042;-86
2021/12/08 13:55:43;;;;;;;6.50;0.93;;;7.20;99.90;;;;;;4768497;29;20042;-81
2021/12/08 13:58:16;;;;;;;6.22;1.30;;;7.10;99.90;;;;;;4761487;29;20047;-81
2021/12/08 14:00:49;;;;;;;6.43;1.08;;;7.20;99.90;;;;;;4774814;29;20042;-81
2021/12/08 14:03:46;;;;;;;4.68;0.75;;;7.20;99.90;;;;;;4770950;29;20039;-83
2021/12/08 14:06:13;;;;;;;5.32;0.90;;;7.20;99.90;;;;;;4797929;29;20042;-84
2021/12/08 14:08:45;;;;;;;4.97;0.88;;;7.30;99.90;;;;;;4756500;29;20046;-83
2021/12/08 14:11:14;;;;;;;5.38;0.75;;;7.20;99.90;;;;;;4787536;29;20042;-83
2021/12/08 14:13:46;;;;;;;3.55;0.80;;;7.10;99.90;;;;;;4787735;29;20491;-83